createdAt,value
2018-09-12T10:44:16.179Z,47.10
2018-09-12T10:46:42.802Z,47.10
2018-09-12T10:49:09.472Z,47.40
2018-09-12T10:51:36.083Z,47.80
2018-09-12T10:54:02.755Z,47.10
2018-09-12T10:56:29.362Z,46.90
2018-09-12T10:58:56.021Z,44.80
2018-09-12T11:01:22.681Z,45.10
2018-09-12T11:03:49.306Z,45.40
2018-09-12T11:06:15.923Z,45.40
2018-09-12T11:08:42.540Z,47.10
2018-09-12T11:11:09.171Z,47.40
2018-09-12T11:13:35.807Z,46.20
2018-09-12T11:16:02.423Z,45.50
2018-09-12T11:18:29.048Z,46.00
2018-09-12T11:20:55.662Z,45.40
2018-09-12T11:23:22.577Z,45.00
2018-09-12T11:25:49.418Z,44.70
2018-09-12T11:28:16.035Z,44.60
2018-09-12T11:30:42.643Z,45.70
2018-09-12T11:33:09.295Z,45.20
2018-09-12T11:35:35.911Z,44.50
2018-09-12T11:38:02.550Z,43.60
2018-09-12T11:40:29.163Z,43.20
2018-09-12T11:42:55.775Z,42.80
2018-09-12T11:45:23.432Z,42.60
2018-09-12T11:47:50.043Z,42.80
2018-09-12T11:50:16.883Z,42.00
2018-09-12T11:52:43.501Z,42.20
2018-09-12T11:55:10.124Z,42.30
2018-09-12T11:57:36.831Z,41.00
2018-09-12T12:00:04.091Z,41.00
2018-09-12T12:02:30.733Z,42.10
2018-09-12T12:04:57.492Z,42.20
2018-09-12T12:07:24.111Z,41.40
2018-09-12T12:09:50.770Z,41.40
2018-09-12T12:12:17.374Z,40.80
2018-09-12T12:14:44.000Z,41.10
2018-09-12T12:17:10.611Z,41.30
2018-09-12T12:19:37.239Z,40.90
2018-09-12T12:22:03.853Z,40.70
2018-09-12T12:24:30.495Z,41.90
2018-09-12T12:26:57.113Z,42.10
2018-09-12T12:29:23.747Z,41.70
2018-09-12T12:31:50.386Z,40.90
2018-09-12T12:34:17.249Z,40.40
2018-09-12T12:36:43.888Z,40.00
2018-09-12T12:39:11.430Z,39.90
2018-09-12T12:41:38.072Z,40.00
2018-09-12T12:44:05.178Z,40.80
2018-09-12T12:46:32.079Z,40.40
2018-09-12T12:48:58.687Z,39.40
2018-09-12T12:51:25.335Z,39.80
2018-09-12T12:53:52.183Z,39.50
2018-09-12T12:56:19.195Z,40.20
2018-09-12T12:58:45.812Z,39.60
2018-09-12T13:01:12.508Z,39.20
2018-09-12T13:03:39.114Z,39.20
2018-09-12T13:06:05.751Z,39.40
2018-09-12T13:08:32.366Z,40.40
2018-09-12T13:10:59.027Z,40.40
2018-09-12T13:13:25.639Z,40.10
2018-09-12T13:15:52.330Z,39.60
2018-09-12T13:18:18.942Z,39.00
2018-09-12T13:20:45.612Z,39.10
2018-09-12T13:23:12.219Z,39.40
2018-09-12T13:25:38.860Z,39.50
2018-09-12T13:28:05.479Z,39.40
2018-09-12T13:30:32.136Z,39.30
2018-09-12T13:32:58.739Z,39.10
2018-09-12T13:35:25.670Z,38.80
2018-09-12T13:37:52.311Z,38.00
2018-09-12T13:40:18.919Z,37.60
2018-09-12T13:42:45.570Z,37.50
2018-09-12T13:45:12.202Z,37.70
2018-09-12T13:47:39.170Z,37.20
2018-09-12T13:50:05.783Z,36.80
2018-09-12T13:52:32.427Z,35.80
2018-09-12T13:54:59.043Z,35.80
2018-09-12T13:57:25.879Z,36.70
2018-09-12T13:59:52.515Z,36.60
2018-09-12T14:02:19.411Z,37.30
2018-09-12T14:04:46.019Z,37.40
2018-09-12T14:07:12.664Z,37.80
2018-09-12T14:09:39.291Z,39.20
2018-09-12T14:12:05.943Z,39.10
2018-09-12T14:14:32.559Z,39.50
2018-09-12T14:16:59.515Z,39.50
2018-09-12T14:19:26.189Z,38.80
2018-09-12T14:21:52.834Z,39.80
2018-09-12T14:24:19.438Z,39.50
2018-09-12T14:26:46.083Z,39.20
2018-09-12T14:29:12.690Z,40.30
2018-09-12T14:31:39.330Z,41.80
2018-09-12T14:34:05.934Z,41.30
2018-09-12T14:36:32.823Z,41.10
2018-09-12T14:38:59.522Z,41.50
2018-09-12T14:41:26.090Z,42.40
2018-09-12T14:43:52.759Z,42.50
2018-09-12T14:46:19.375Z,43.10
2018-09-12T14:48:46.007Z,44.10
2018-09-12T14:51:12.620Z,44.10
2018-09-12T14:53:39.254Z,44.00
2018-09-12T14:56:05.950Z,43.30
2018-09-12T14:58:32.599Z,42.00
2018-09-12T15:00:59.587Z,41.90
2018-09-12T15:03:26.397Z,41.00
2018-09-12T15:05:53.033Z,42.00
2018-09-12T15:08:19.662Z,43.20
2018-09-12T15:10:46.274Z,43.90
2018-09-12T15:13:13.315Z,44.90
2018-09-12T15:15:39.933Z,44.40
2018-09-12T15:18:06.558Z,43.90
2018-09-12T15:20:33.182Z,43.70
2018-09-12T15:22:59.815Z,43.60
2018-09-12T15:25:26.418Z,43.90
2018-09-12T15:27:53.051Z,44.40
2018-09-12T15:30:19.683Z,44.90
2018-09-12T15:32:46.319Z,44.50
2018-09-12T15:35:12.928Z,43.70
2018-09-12T15:37:39.572Z,43.90
2018-09-12T15:40:06.185Z,44.00
2018-09-12T15:42:33.088Z,44.90
2018-09-12T15:45:00.368Z,44.60
2018-09-12T15:47:27.022Z,45.20
2018-09-12T15:49:53.679Z,45.40
2018-09-12T15:52:20.411Z,45.50
2018-09-12T15:54:47.028Z,45.60
2018-09-12T15:57:13.639Z,45.80
2018-09-12T15:59:40.276Z,45.90
2018-09-12T16:02:06.892Z,47.20
2018-09-12T16:04:33.531Z,47.60
2018-09-12T16:07:00.143Z,48.50
2018-09-12T16:09:26.796Z,49.10
2018-09-12T16:11:53.669Z,48.70
2018-09-12T16:14:20.299Z,55.80
2018-09-12T16:16:46.983Z,58.50
2018-09-12T16:19:13.583Z,61.10
2018-09-12T16:21:40.219Z,63.50
2018-09-12T16:24:06.907Z,66.10
2018-09-12T16:26:33.622Z,69.00
2018-09-12T16:29:00.271Z,71.00
2018-09-12T16:31:26.907Z,73.30
2018-09-12T16:33:53.563Z,75.50
2018-09-12T16:36:20.199Z,76.60
2018-09-12T16:38:46.847Z,78.00
2018-09-12T16:41:13.461Z,79.50
2018-09-12T16:43:40.100Z,80.90
2018-09-12T16:46:07.039Z,83.00
2018-09-12T16:48:33.723Z,84.40
2018-09-12T16:51:00.343Z,86.80
2018-09-12T16:53:27.716Z,88.30
2018-09-12T16:55:54.327Z,90.30
2018-09-12T16:58:21.090Z,91.40
2018-09-12T17:00:47.695Z,92.60
2018-09-12T17:03:14.330Z,93.70
2018-09-12T17:05:41.578Z,95.70
2018-09-12T17:08:08.242Z,97.90
2018-09-12T17:10:34.870Z,99.90
2018-09-12T17:13:01.503Z,99.90
2018-09-12T17:15:28.144Z,99.90
2018-09-12T17:17:54.795Z,99.90
2018-09-12T17:20:21.675Z,99.90
2018-09-12T17:22:48.313Z,99.90
2018-09-12T17:25:14.919Z,99.90
2018-09-12T17:27:41.558Z,99.90
2018-09-12T17:30:08.163Z,99.90
2018-09-12T17:32:34.827Z,99.90
2018-09-12T17:35:01.445Z,99.90
2018-09-12T17:37:28.058Z,99.90
2018-09-12T17:39:54.705Z,99.90
2018-09-12T17:42:21.311Z,99.90
2018-09-12T17:44:48.024Z,99.90
2018-09-12T17:47:14.906Z,99.90
2018-09-12T17:49:41.762Z,99.90
2018-09-12T17:52:08.362Z,99.90
2018-09-12T17:54:35.019Z,99.90
2018-09-12T17:57:01.647Z,99.90
2018-09-12T17:59:28.290Z,99.90
2018-09-12T18:01:54.902Z,99.90
2018-09-12T18:04:21.539Z,99.90
2018-09-12T18:06:48.151Z,99.90
2018-09-12T18:09:14.784Z,99.90
2018-09-12T18:11:41.499Z,99.90
2018-09-12T18:14:08.135Z,99.90
2018-09-12T18:16:34.806Z,99.90
2018-09-12T18:19:01.446Z,99.90
2018-09-12T18:21:28.722Z,99.90
2018-09-12T18:23:55.368Z,99.90
2018-09-12T18:26:21.985Z,99.90
2018-09-12T18:28:48.631Z,99.90
2018-09-12T18:31:15.251Z,99.90
2018-09-12T18:33:41.895Z,99.90
2018-09-12T18:36:08.791Z,99.90
2018-09-12T18:38:35.683Z,99.90
2018-09-12T18:41:02.298Z,99.90
2018-09-12T18:43:28.934Z,99.90
2018-09-12T18:45:55.732Z,99.90
2018-09-12T18:48:22.351Z,99.90
2018-09-12T18:50:49.006Z,99.90
2018-09-12T18:53:15.638Z,99.90
2018-09-12T18:55:42.283Z,99.90
2018-09-12T18:58:08.928Z,99.90
2018-09-12T19:00:35.588Z,99.90
2018-09-12T19:03:02.213Z,99.90
2018-09-12T19:05:29.266Z,99.90
2018-09-12T19:07:56.175Z,99.90
2018-09-12T19:10:22.811Z,99.90
2018-09-12T19:12:49.550Z,99.90
2018-09-12T19:15:16.195Z,99.90
2018-09-12T19:17:42.819Z,99.90
2018-09-12T19:20:09.454Z,99.90
2018-09-12T19:22:36.087Z,99.90
2018-09-12T19:25:02.726Z,99.90
2018-09-12T19:27:29.379Z,99.90
2018-09-12T19:29:56.021Z,99.90
2018-09-12T19:32:22.640Z,99.90
2018-09-12T19:34:49.303Z,99.90
2018-09-12T19:37:15.910Z,99.90
2018-09-12T19:39:42.532Z,99.90
2018-09-12T19:42:09.187Z,99.90
2018-09-12T19:44:35.823Z,99.90
2018-09-12T19:47:02.443Z,99.90
2018-09-12T19:49:29.093Z,99.90
2018-09-12T19:51:55.715Z,99.90
2018-09-12T19:54:22.373Z,99.90
2018-09-12T19:56:48.983Z,99.90
2018-09-12T19:59:15.628Z,99.90
2018-09-12T20:01:42.253Z,99.90
2018-09-12T20:04:08.904Z,99.90
2018-09-12T20:06:35.516Z,99.90
2018-09-12T20:09:02.411Z,99.90
2018-09-12T20:11:29.163Z,99.90
2018-09-12T20:13:55.780Z,99.90
2018-09-12T20:16:22.487Z,99.90
2018-09-12T20:18:49.108Z,99.90
2018-09-12T20:21:16.275Z,99.90
2018-09-12T20:23:43.020Z,99.90
2018-09-12T20:26:09.625Z,99.90
2018-09-12T20:28:36.787Z,99.90
2018-09-12T20:31:03.882Z,99.90
2018-09-12T20:33:30.495Z,99.90
2018-09-12T20:35:57.139Z,99.90
2018-09-12T20:38:23.750Z,99.90
2018-09-12T20:40:50.390Z,99.90
2018-09-12T20:43:16.999Z,99.90
2018-09-12T20:45:43.886Z,99.90
2018-09-12T20:48:10.491Z,99.90
2018-09-12T20:50:37.167Z,99.90
2018-09-12T20:53:03.761Z,99.90
2018-09-12T20:55:30.394Z,99.90
2018-09-12T20:57:57.003Z,99.90
2018-09-12T21:00:23.646Z,99.90
2018-09-12T21:02:50.355Z,99.90
2018-09-12T21:05:16.914Z,99.90
2018-09-12T21:07:43.719Z,99.90
2018-09-12T21:10:10.374Z,99.90
2018-09-12T21:12:37.075Z,99.90
2018-09-12T21:15:03.721Z,99.90
2018-09-12T21:17:30.327Z,99.90
2018-09-12T21:19:57.176Z,99.90
2018-09-12T21:22:23.843Z,99.90
2018-09-12T21:24:50.451Z,99.90
2018-09-12T21:27:17.095Z,99.90
2018-09-12T21:29:43.702Z,99.90
2018-09-12T21:32:10.339Z,99.90
2018-09-12T21:34:36.967Z,99.90
2018-09-12T21:37:03.818Z,99.90
2018-09-12T21:39:30.442Z,99.90
2018-09-12T21:41:57.083Z,99.90
2018-09-12T21:44:23.699Z,99.90
2018-09-12T21:46:50.344Z,99.90
2018-09-12T21:49:16.951Z,99.90
2018-09-12T21:51:43.595Z,99.90
2018-09-12T21:54:10.222Z,99.90
2018-09-12T21:56:36.866Z,99.90
2018-09-12T21:59:04.322Z,99.90
2018-09-12T22:01:30.970Z,99.90
2018-09-12T22:03:57.582Z,99.90
2018-09-12T22:06:24.218Z,99.90
2018-09-12T22:08:50.830Z,99.90
2018-09-12T22:11:17.579Z,99.90
2018-09-12T22:13:44.417Z,99.90
2018-09-12T22:16:11.055Z,99.90
2018-09-12T22:18:37.667Z,99.90
2018-09-12T22:21:04.348Z,99.90
2018-09-12T22:23:30.951Z,99.90
2018-09-12T22:25:57.554Z,99.90
2018-09-12T22:28:24.187Z,99.90
2018-09-12T22:30:50.794Z,99.90
2018-09-12T22:33:17.431Z,99.90
2018-09-12T22:35:44.043Z,99.90
2018-09-12T22:38:10.738Z,99.90
2018-09-12T22:40:37.581Z,99.90
2018-09-12T22:43:04.393Z,99.90
2018-09-12T22:45:31.070Z,99.90
2018-09-12T22:47:57.699Z,99.90
2018-09-12T22:50:24.303Z,99.90
2018-09-12T22:52:50.938Z,99.90
2018-09-12T22:55:17.539Z,99.90
2018-09-12T22:57:44.422Z,99.90
2018-09-12T23:00:11.031Z,99.90
2018-09-12T23:02:37.663Z,99.90
2018-09-12T23:05:04.419Z,99.90
2018-09-12T23:07:31.339Z,99.90
2018-09-12T23:09:57.951Z,99.90
2018-09-12T23:12:24.630Z,99.90
2018-09-12T23:14:51.238Z,99.90
2018-09-12T23:17:17.871Z,99.90
2018-09-12T23:19:44.479Z,99.90
2018-09-12T23:22:11.450Z,99.90
2018-09-12T23:24:38.091Z,99.90
2018-09-12T23:27:04.694Z,99.90
2018-09-12T23:29:31.331Z,99.90
2018-09-12T23:31:58.531Z,99.90
2018-09-12T23:34:25.167Z,99.90
2018-09-12T23:36:51.779Z,99.90
2018-09-12T23:39:18.423Z,99.90
2018-09-12T23:41:45.058Z,99.90
2018-09-12T23:44:11.690Z,99.90
2018-09-12T23:46:38.406Z,99.90
2018-09-12T23:49:05.811Z,99.90
2018-09-12T23:51:32.415Z,99.90
2018-09-12T23:53:59.170Z,99.90
2018-09-12T23:56:25.779Z,99.90
2018-09-12T23:58:52.415Z,99.90
